sensor_id;sensor_type;location;lat;lon;timestamp;P1;durP1;ratioP1;P2;durP2;ratioP2
57707;SDS011;43540;51.690;9.562;2023-11-18T00:00:55;14.82;;;5.97;;
57707;SDS011;43540;51.690;9.562;2023-11-18T00:03:22;13.60;;;6.00;;
57707;SDS011;43540;51.690;9.562;2023-11-18T00:05:49;18.67;;;7.53;;
57707;SDS011;43540;51.690;9.562;2023-11-18T00:08:15;13.00;;;6.07;;
57707;SDS011;43540;51.690;9.562;2023-11-18T00:10:42;15.13;;;6.78;;
57707;SDS011;43540;51.690;9.562;2023-11-18T00:13:09;12.07;;;6.20;;
57707;SDS011;43540;51.690;9.562;2023-11-18T00:15:35;14.77;;;7.05;;
57707;SDS011;43540;51.690;9.562;2023-11-18T00:18:02;13.88;;;6.60;;
57707;SDS011;43540;51.690;9.562;2023-11-18T00:20:29;15.20;;;6.50;;
57707;SDS011;43540;51.690;9.562;2023-11-18T00:22:57;15.35;;;6.75;;
57707;SDS011;43540;51.690;9.562;2023-11-18T00:25:24;15.15;;;7.13;;
57707;SDS011;43540;51.690;9.562;2023-11-18T00:27:51;16.10;;;6.28;;
57707;SDS011;43540;51.690;9.562;2023-11-18T00:30:18;14.43;;;6.47;;
57707;SDS011;43540;51.690;9.562;2023-11-18T00:32:44;16.65;;;7.05;;
57707;SDS011;43540;51.690;9.562;2023-11-18T00:35:11;13.85;;;6.90;;
57707;SDS011;43540;51.690;9.562;2023-11-18T00:37:38;16.13;;;7.20;;
57707;SDS011;43540;51.690;9.562;2023-11-18T00:40:06;16.80;;;7.63;;
57707;SDS011;43540;51.690;9.562;2023-11-18T00:42:34;16.98;;;7.07;;
57707;SDS011;43540;51.690;9.562;2023-11-18T00:45:01;17.60;;;7.93;;
57707;SDS011;43540;51.690;9.562;2023-11-18T00:47:27;16.80;;;8.13;;
57707;SDS011;43540;51.690;9.562;2023-11-18T00:49:55;17.70;;;8.82;;
57707;SDS011;43540;51.690;9.562;2023-11-18T00:52:21;18.60;;;8.68;;
57707;SDS011;43540;51.690;9.562;2023-11-18T00:54:48;22.23;;;9.23;;
57707;SDS011;43540;51.690;9.562;2023-11-18T00:57:15;18.65;;;8.68;;
57707;SDS011;43540;51.690;9.562;2023-11-18T00:59:43;22.27;;;9.20;;
57707;SDS011;43540;51.690;9.562;2023-11-18T01:02:10;22.85;;;9.45;;
57707;SDS011;43540;51.690;9.562;2023-11-18T01:04:37;21.80;;;9.57;;
57707;SDS011;43540;51.690;9.562;2023-11-18T01:07:05;23.20;;;9.18;;
57707;SDS011;43540;51.690;9.562;2023-11-18T01:09:32;23.58;;;9.95;;
57707;SDS011;43540;51.690;9.562;2023-11-18T01:12:05;22.33;;;9.43;;
57707;SDS011;43540;51.690;9.562;2023-11-18T01:14:39;22.67;;;10.00;;
57707;SDS011;43540;51.690;9.562;2023-11-18T01:17:08;20.08;;;9.30;;
57707;SDS011;43540;51.690;9.562;2023-11-18T01:19:40;21.55;;;9.82;;
57707;SDS011;43540;51.690;9.562;2023-11-18T01:22:07;19.75;;;9.38;;
57707;SDS011;43540;51.690;9.562;2023-11-18T01:24:35;20.60;;;8.77;;
57707;SDS011;43540;51.690;9.562;2023-11-18T01:27:01;20.98;;;9.93;;
57707;SDS011;43540;51.690;9.562;2023-11-18T01:29:28;19.80;;;9.18;;
57707;SDS011;43540;51.690;9.562;2023-11-18T01:31:55;20.23;;;9.23;;
57707;SDS011;43540;51.690;9.562;2023-11-18T01:34:22;20.60;;;9.77;;
57707;SDS011;43540;51.690;9.562;2023-11-18T01:36:49;23.52;;;10.27;;
57707;SDS011;43540;51.690;9.562;2023-11-18T01:39:17;22.75;;;10.02;;
57707;SDS011;43540;51.690;9.562;2023-11-18T01:41:44;28.17;;;11.80;;
57707;SDS011;43540;51.690;9.562;2023-11-18T01:44:12;30.85;;;12.48;;
57707;SDS011;43540;51.690;9.562;2023-11-18T01:46:41;29.45;;;11.60;;
57707;SDS011;43540;51.690;9.562;2023-11-18T01:49:12;28.58;;;12.57;;
57707;SDS011;43540;51.690;9.562;2023-11-18T01:51:44;25.63;;;11.65;;
57707;SDS011;43540;51.690;9.562;2023-11-18T01:54:13;29.05;;;11.85;;
57707;SDS011;43540;51.690;9.562;2023-11-18T01:56:46;29.70;;;12.93;;
57707;SDS011;43540;51.690;9.562;2023-11-18T01:59:14;27.83;;;12.20;;
57707;SDS011;43540;51.690;9.562;2023-11-18T02:01:49;25.02;;;11.18;;
57707;SDS011;43540;51.690;9.562;2023-11-18T02:04:19;29.40;;;12.07;;
57707;SDS011;43540;51.690;9.562;2023-11-18T02:06:49;32.13;;;12.77;;
57707;SDS011;43540;51.690;9.562;2023-11-18T02:09:16;31.60;;;12.75;;
57707;SDS011;43540;51.690;9.562;2023-11-18T02:14:20;35.72;;;13.05;;
57707;SDS011;43540;51.690;9.562;2023-11-18T02:16:52;29.20;;;12.57;;
57707;SDS011;43540;51.690;9.562;2023-11-18T02:19:25;39.72;;;15.10;;
57707;SDS011;43540;51.690;9.562;2023-11-18T02:21:56;32.17;;;14.02;;
57707;SDS011;43540;51.690;9.562;2023-11-18T02:24:24;31.90;;;13.55;;
57707;SDS011;43540;51.690;9.562;2023-11-18T02:26:57;30.08;;;13.48;;
57707;SDS011;43540;51.690;9.562;2023-11-18T02:29:26;30.15;;;13.13;;
57707;SDS011;43540;51.690;9.562;2023-11-18T02:31:57;30.77;;;12.32;;
57707;SDS011;43540;51.690;9.562;2023-11-18T02:34:34;32.95;;;13.45;;
57707;SDS011;43540;51.690;9.562;2023-11-18T02:37:07;34.25;;;12.57;;
57707;SDS011;43540;51.690;9.562;2023-11-18T02:39:45;26.98;;;12.38;;
57707;SDS011;43540;51.690;9.562;2023-11-18T02:42:23;30.55;;;12.88;;
57707;SDS011;43540;51.690;9.562;2023-11-18T02:44:51;32.10;;;13.43;;
57707;SDS011;43540;51.690;9.562;2023-11-18T02:47:26;28.17;;;11.38;;
57707;SDS011;43540;51.690;9.562;2023-11-18T02:49:53;34.38;;;12.48;;
57707;SDS011;43540;51.690;9.562;2023-11-18T02:52:22;28.73;;;12.43;;
57707;SDS011;43540;51.690;9.562;2023-11-18T02:54:49;25.75;;;10.80;;
57707;SDS011;43540;51.690;9.562;2023-11-18T02:57:15;25.85;;;11.35;;
57707;SDS011;43540;51.690;9.562;2023-11-18T02:59:42;26.55;;;11.30;;
57707;SDS011;43540;51.690;9.562;2023-11-18T03:02:09;29.13;;;12.43;;
57707;SDS011;43540;51.690;9.562;2023-11-18T03:04:36;29.42;;;12.40;;
57707;SDS011;43540;51.690;9.562;2023-11-18T03:07:03;24.73;;;10.68;;
57707;SDS011;43540;51.690;9.562;2023-11-18T03:09:29;30.30;;;14.38;;
57707;SDS011;43540;51.690;9.562;2023-11-18T03:11:56;33.00;;;14.30;;
57707;SDS011;43540;51.690;9.562;2023-11-18T03:14:23;27.98;;;11.93;;
57707;SDS011;43540;51.690;9.562;2023-11-18T03:16:49;23.17;;;10.77;;
57707;SDS011;43540;51.690;9.562;2023-11-18T03:19:16;24.85;;;9.88;;
57707;SDS011;43540;51.690;9.562;2023-11-18T03:21:43;24.42;;;10.50;;
57707;SDS011;43540;51.690;9.562;2023-11-18T03:24:12;24.15;;;10.27;;
57707;SDS011;43540;51.690;9.562;2023-11-18T03:26:39;26.60;;;12.40;;
57707;SDS011;43540;51.690;9.562;2023-11-18T03:29:07;34.75;;;13.85;;
57707;SDS011;43540;51.690;9.562;2023-11-18T03:31:37;33.30;;;14.48;;
57707;SDS011;43540;51.690;9.562;2023-11-18T03:34:03;30.65;;;12.73;;
57707;SDS011;43540;51.690;9.562;2023-11-18T03:36:30;25.05;;;10.65;;
57707;SDS011;43540;51.690;9.562;2023-11-18T03:38:57;25.95;;;10.57;;
57707;SDS011;43540;51.690;9.562;2023-11-18T03:41:24;24.33;;;10.27;;
57707;SDS011;43540;51.690;9.562;2023-11-18T03:43:50;29.40;;;11.05;;
57707;SDS011;43540;51.690;9.562;2023-11-18T03:46:20;22.27;;;10.05;;
57707;SDS011;43540;51.690;9.562;2023-11-18T03:48:47;21.45;;;9.27;;
57707;SDS011;43540;51.690;9.562;2023-11-18T03:51:13;22.67;;;9.48;;
57707;SDS011;43540;51.690;9.562;2023-11-18T03:53:43;17.52;;;8.35;;
57707;SDS011;43540;51.690;9.562;2023-11-18T03:56:09;22.73;;;9.40;;
57707;SDS011;43540;51.690;9.562;2023-11-18T03:58:36;25.52;;;9.98;;
57707;SDS011;43540;51.690;9.562;2023-11-18T04:01:03;23.23;;;9.85;;
57707;SDS011;43540;51.690;9.562;2023-11-18T04:03:30;22.15;;;9.68;;
57707;SDS011;43540;51.690;9.562;2023-11-18T04:05:58;25.73;;;10.05;;
57707;SDS011;43540;51.690;9.562;2023-11-18T04:08:24;23.73;;;9.60;;
57707;SDS011;43540;51.690;9.562;2023-11-18T04:10:51;24.88;;;9.77;;
57707;SDS011;43540;51.690;9.562;2023-11-18T04:13:18;25.08;;;10.15;;
57707;SDS011;43540;51.690;9.562;2023-11-18T04:15:45;22.48;;;10.00;;
57707;SDS011;43540;51.690;9.562;2023-11-18T04:18:12;22.33;;;9.75;;
57707;SDS011;43540;51.690;9.562;2023-11-18T04:20:39;22.08;;;9.77;;
57707;SDS011;43540;51.690;9.562;2023-11-18T04:23:05;24.90;;;9.75;;
57707;SDS011;43540;51.690;9.562;2023-11-18T04:25:32;24.15;;;9.75;;
57707;SDS011;43540;51.690;9.562;2023-11-18T04:27:59;20.75;;;8.85;;
57707;SDS011;43540;51.690;9.562;2023-11-18T04:30:25;25.05;;;10.57;;
57707;SDS011;43540;51.690;9.562;2023-11-18T04:32:53;22.42;;;9.63;;
57707;SDS011;43540;51.690;9.562;2023-11-18T04:35:20;22.40;;;9.65;;
57707;SDS011;43540;51.690;9.562;2023-11-18T04:37:48;25.70;;;9.55;;
57707;SDS011;43540;51.690;9.562;2023-11-18T04:40:15;21.40;;;9.63;;
57707;SDS011;43540;51.690;9.562;2023-11-18T04:42:42;25.27;;;9.82;;
57707;SDS011;43540;51.690;9.562;2023-11-18T04:45:09;25.00;;;10.00;;
57707;SDS011;43540;51.690;9.562;2023-11-18T04:47:36;23.30;;;9.63;;
57707;SDS011;43540;51.690;9.562;2023-11-18T04:50:04;22.90;;;8.63;;
57707;SDS011;43540;51.690;9.562;2023-11-18T04:52:31;21.80;;;8.82;;
57707;SDS011;43540;51.690;9.562;2023-11-18T04:55:01;21.45;;;9.13;;
57707;SDS011;43540;51.690;9.562;2023-11-18T04:57:29;25.48;;;9.70;;
57707;SDS011;43540;51.690;9.562;2023-11-18T04:59:56;25.67;;;9.98;;
57707;SDS011;43540;51.690;9.562;2023-11-18T05:02:23;21.38;;;9.38;;
57707;SDS011;43540;51.690;9.562;2023-11-18T05:04:49;22.30;;;8.77;;
57707;SDS011;43540;51.690;9.562;2023-11-18T05:07:16;25.70;;;9.65;;
57707;SDS011;43540;51.690;9.562;2023-11-18T05:09:43;22.67;;;8.65;;
57707;SDS011;43540;51.690;9.562;2023-11-18T05:12:10;22.13;;;8.52;;
57707;SDS011;43540;51.690;9.562;2023-11-18T05:14:37;23.10;;;9.32;;
57707;SDS011;43540;51.690;9.562;2023-11-18T05:17:04;26.35;;;9.20;;
57707;SDS011;43540;51.690;9.562;2023-11-18T05:19:31;22.52;;;8.73;;
57707;SDS011;43540;51.690;9.562;2023-11-18T05:21:58;23.13;;;8.50;;
57707;SDS011;43540;51.690;9.562;2023-11-18T05:24:26;25.00;;;8.20;;
57707;SDS011;43540;51.690;9.562;2023-11-18T05:26:53;28.60;;;8.98;;
57707;SDS011;43540;51.690;9.562;2023-11-18T05:29:19;24.13;;;9.20;;
57707;SDS011;43540;51.690;9.562;2023-11-18T05:31:47;26.35;;;9.63;;
57707;SDS011;43540;51.690;9.562;2023-11-18T05:34:14;31.40;;;10.10;;
57707;SDS011;43540;51.690;9.562;2023-11-18T05:36:41;33.42;;;10.90;;
57707;SDS011;43540;51.690;9.562;2023-11-18T05:39:08;28.70;;;10.80;;
57707;SDS011;43540;51.690;9.562;2023-11-18T05:41:37;28.38;;;10.13;;
57707;SDS011;43540;51.690;9.562;2023-11-18T05:44:06;29.70;;;11.15;;
57707;SDS011;43540;51.690;9.562;2023-11-18T05:46:36;35.58;;;11.80;;
57707;SDS011;43540;51.690;9.562;2023-11-18T05:49:05;31.52;;;10.38;;
57707;SDS011;43540;51.690;9.562;2023-11-18T05:51:34;33.80;;;11.35;;
57707;SDS011;43540;51.690;9.562;2023-11-18T05:54:01;37.53;;;12.52;;
57707;SDS011;43540;51.690;9.562;2023-11-18T05:56:28;30.08;;;11.60;;
57707;SDS011;43540;51.690;9.562;2023-11-18T05:58:55;28.40;;;10.85;;
57707;SDS011;43540;51.690;9.562;2023-11-18T06:01:22;36.15;;;10.48;;
57707;SDS011;43540;51.690;9.562;2023-11-18T06:03:49;33.63;;;11.88;;
57707;SDS011;43540;51.690;9.562;2023-11-18T06:06:16;30.42;;;11.20;;
57707;SDS011;43540;51.690;9.562;2023-11-18T06:08:49;33.42;;;12.32;;
57707;SDS011;43540;51.690;9.562;2023-11-18T06:11:16;34.80;;;11.60;;
57707;SDS011;43540;51.690;9.562;2023-11-18T06:13:46;28.38;;;10.18;;
57707;SDS011;43540;51.690;9.562;2023-11-18T06:16:15;28.95;;;10.60;;
57707;SDS011;43540;51.690;9.562;2023-11-18T06:18:43;30.05;;;10.38;;
57707;SDS011;43540;51.690;9.562;2023-11-18T06:21:12;27.08;;;9.75;;
57707;SDS011;43540;51.690;9.562;2023-11-18T06:23:42;30.38;;;11.55;;
57707;SDS011;43540;51.690;9.562;2023-11-18T06:26:09;27.52;;;10.82;;
57707;SDS011;43540;51.690;9.562;2023-11-18T06:28:42;27.80;;;10.52;;
57707;SDS011;43540;51.690;9.562;2023-11-18T06:31:10;33.53;;;10.70;;
57707;SDS011;43540;51.690;9.562;2023-11-18T06:33:38;30.25;;;10.95;;
57707;SDS011;43540;51.690;9.562;2023-11-18T06:38:43;26.63;;;10.05;;
57707;SDS011;43540;51.690;9.562;2023-11-18T06:41:10;25.75;;;9.93;;
57707;SDS011;43540;51.690;9.562;2023-11-18T06:43:40;27.88;;;10.48;;
57707;SDS011;43540;51.690;9.562;2023-11-18T06:46:22;27.40;;;10.23;;
57707;SDS011;43540;51.690;9.562;2023-11-18T06:48:53;29.25;;;10.57;;
57707;SDS011;43540;51.690;9.562;2023-11-18T06:51:21;26.10;;;11.05;;
57707;SDS011;43540;51.690;9.562;2023-11-18T06:53:51;22.80;;;9.85;;
57707;SDS011;43540;51.690;9.562;2023-11-18T06:56:18;26.85;;;9.80;;
57707;SDS011;43540;51.690;9.562;2023-11-18T06:58:45;24.48;;;10.20;;
57707;SDS011;43540;51.690;9.562;2023-11-18T07:01:14;24.95;;;9.68;;
57707;SDS011;43540;51.690;9.562;2023-11-18T07:03:42;30.52;;;10.48;;
57707;SDS011;43540;51.690;9.562;2023-11-18T07:06:10;28.23;;;11.88;;
57707;SDS011;43540;51.690;9.562;2023-11-18T07:08:40;26.63;;;10.93;;
57707;SDS011;43540;51.690;9.562;2023-11-18T07:11:07;26.30;;;10.70;;
57707;SDS011;43540;51.690;9.562;2023-11-18T07:13:34;25.27;;;10.95;;
57707;SDS011;43540;51.690;9.562;2023-11-18T07:16:01;24.40;;;9.85;;
57707;SDS011;43540;51.690;9.562;2023-11-18T07:18:29;24.63;;;9.50;;
57707;SDS011;43540;51.690;9.562;2023-11-18T07:21:01;22.02;;;9.75;;
57707;SDS011;43540;51.690;9.562;2023-11-18T07:23:33;32.47;;;9.63;;
57707;SDS011;43540;51.690;9.562;2023-11-18T07:26:01;25.17;;;9.93;;
57707;SDS011;43540;51.690;9.562;2023-11-18T07:28:30;44.83;;;12.27;;
57707;SDS011;43540;51.690;9.562;2023-11-18T07:30:57;33.65;;;12.20;;
57707;SDS011;43540;51.690;9.562;2023-11-18T07:33:26;28.02;;;12.23;;
57707;SDS011;43540;51.690;9.562;2023-11-18T07:35:53;23.63;;;10.52;;
57707;SDS011;43540;51.690;9.562;2023-11-18T07:38:21;24.33;;;9.15;;
57707;SDS011;43540;51.690;9.562;2023-11-18T07:40:48;28.33;;;8.20;;
57707;SDS011;43540;51.690;9.562;2023-11-18T07:43:15;27.85;;;9.68;;
57707;SDS011;43540;51.690;9.562;2023-11-18T07:45:42;32.33;;;12.00;;
57707;SDS011;43540;51.690;9.562;2023-11-18T07:48:09;20.02;;;9.25;;
57707;SDS011;43540;51.690;9.562;2023-11-18T07:50:39;28.35;;;10.70;;
57707;SDS011;43540;51.690;9.562;2023-11-18T07:53:07;21.95;;;9.32;;
57707;SDS011;43540;51.690;9.562;2023-11-18T07:55:34;23.27;;;9.32;;
57707;SDS011;43540;51.690;9.562;2023-11-18T07:58:01;32.60;;;9.70;;
57707;SDS011;43540;51.690;9.562;2023-11-18T08:00:28;42.33;;;9.70;;
57707;SDS011;43540;51.690;9.562;2023-11-18T08:02:57;21.42;;;9.48;;
57707;SDS011;43540;51.690;9.562;2023-11-18T08:05:27;25.52;;;9.77;;
57707;SDS011;43540;51.690;9.562;2023-11-18T08:07:54;36.65;;;10.00;;
57707;SDS011;43540;51.690;9.562;2023-11-18T08:10:21;26.00;;;10.13;;
57707;SDS011;43540;51.690;9.562;2023-11-18T08:12:48;28.77;;;10.90;;
57707;SDS011;43540;51.690;9.562;2023-11-18T08:15:14;23.33;;;10.15;;
57707;SDS011;43540;51.690;9.562;2023-11-18T08:17:41;27.20;;;10.48;;
57707;SDS011;43540;51.690;9.562;2023-11-18T08:20:08;29.95;;;11.07;;
57707;SDS011;43540;51.690;9.562;2023-11-18T08:22:42;30.40;;;11.25;;
57707;SDS011;43540;51.690;9.562;2023-11-18T08:25:12;26.92;;;10.20;;
57707;SDS011;43540;51.690;9.562;2023-11-18T08:27:39;28.35;;;11.20;;
57707;SDS011;43540;51.690;9.562;2023-11-18T08:30:07;24.02;;;10.98;;
57707;SDS011;43540;51.690;9.562;2023-11-18T08:32:38;26.27;;;10.77;;
57707;SDS011;43540;51.690;9.562;2023-11-18T08:35:06;27.88;;;10.82;;
57707;SDS011;43540;51.690;9.562;2023-11-18T08:37:36;28.90;;;11.55;;
57707;SDS011;43540;51.690;9.562;2023-11-18T08:40:04;23.70;;;9.93;;
57707;SDS011;43540;51.690;9.562;2023-11-18T08:42:48;20.42;;;9.93;;
57707;SDS011;43540;51.690;9.562;2023-11-18T08:45:20;23.33;;;10.52;;
57707;SDS011;43540;51.690;9.562;2023-11-18T08:47:48;23.80;;;10.00;;
57707;SDS011;43540;51.690;9.562;2023-11-18T08:50:16;23.52;;;10.88;;
57707;SDS011;43540;51.690;9.562;2023-11-18T08:52:43;25.75;;;10.52;;
57707;SDS011;43540;51.690;9.562;2023-11-18T08:55:14;35.00;;;11.73;;
57707;SDS011;43540;51.690;9.562;2023-11-18T08:57:46;28.85;;;11.13;;
57707;SDS011;43540;51.690;9.562;2023-11-18T09:00:26;33.55;;;11.80;;
57707;SDS011;43540;51.690;9.562;2023-11-18T09:03:12;25.80;;;10.52;;
57707;SDS011;43540;51.690;9.562;2023-11-18T09:05:55;32.30;;;12.38;;
57707;SDS011;43540;51.690;9.562;2023-11-18T09:11:10;30.95;;;12.52;;
57707;SDS011;43540;51.690;9.562;2023-11-18T09:13:41;28.58;;;12.30;;
57707;SDS011;43540;51.690;9.562;2023-11-18T09:16:11;30.52;;;13.23;;
57707;SDS011;43540;51.690;9.562;2023-11-18T09:18:42;29.13;;;12.70;;
57707;SDS011;43540;51.690;9.562;2023-11-18T09:21:13;30.10;;;12.80;;
57707;SDS011;43540;51.690;9.562;2023-11-18T09:24:04;29.92;;;13.40;;
57707;SDS011;43540;51.690;9.562;2023-11-18T09:26:31;31.90;;;13.07;;
57707;SDS011;43540;51.690;9.562;2023-11-18T09:28:59;33.13;;;13.07;;
57707;SDS011;43540;51.690;9.562;2023-11-18T09:31:28;31.90;;;12.18;;
57707;SDS011;43540;51.690;9.562;2023-11-18T09:33:55;31.70;;;14.70;;
57707;SDS011;43540;51.690;9.562;2023-11-18T09:36:24;41.78;;;17.13;;
57707;SDS011;43540;51.690;9.562;2023-11-18T09:38:50;35.30;;;14.82;;
57707;SDS011;43540;51.690;9.562;2023-11-18T09:41:17;39.70;;;16.17;;
57707;SDS011;43540;51.690;9.562;2023-11-18T09:43:45;37.60;;;16.13;;
57707;SDS011;43540;51.690;9.562;2023-11-18T09:46:15;33.97;;;15.20;;
57707;SDS011;43540;51.690;9.562;2023-11-18T09:51:26;29.65;;;12.57;;
57707;SDS011;43540;51.690;9.562;2023-11-18T09:54:05;31.25;;;13.00;;
57707;SDS011;43540;51.690;9.562;2023-11-18T09:59:25;26.13;;;11.82;;
57707;SDS011;43540;51.690;9.562;2023-11-18T10:01:57;23.37;;;11.93;;
57707;SDS011;43540;51.690;9.562;2023-11-18T10:04:24;29.60;;;12.50;;
57707;SDS011;43540;51.690;9.562;2023-11-18T10:06:54;27.33;;;11.75;;
57707;SDS011;43540;51.690;9.562;2023-11-18T10:09:23;27.58;;;11.93;;
57707;SDS011;43540;51.690;9.562;2023-11-18T10:12:03;26.02;;;11.68;;
57707;SDS011;43540;51.690;9.562;2023-11-18T10:14:36;29.33;;;12.00;;
57707;SDS011;43540;51.690;9.562;2023-11-18T10:17:07;28.20;;;13.00;;
57707;SDS011;43540;51.690;9.562;2023-11-18T10:20:17;32.08;;;14.02;;
57707;SDS011;43540;51.690;9.562;2023-11-18T10:22:39;31.10;;;13.73;;
57707;SDS011;43540;51.690;9.562;2023-11-18T10:25:07;32.67;;;14.65;;
57707;SDS011;43540;51.690;9.562;2023-11-18T10:27:34;27.55;;;13.50;;
57707;SDS011;43540;51.690;9.562;2023-11-18T10:30:03;25.92;;;12.55;;
57707;SDS011;43540;51.690;9.562;2023-11-18T10:32:31;29.48;;;13.88;;
57707;SDS011;43540;51.690;9.562;2023-11-18T10:35:03;26.77;;;12.23;;
57707;SDS011;43540;51.690;9.562;2023-11-18T10:37:31;29.00;;;13.57;;
57707;SDS011;43540;51.690;9.562;2023-11-18T10:40:03;28.40;;;12.88;;
57707;SDS011;43540;51.690;9.562;2023-11-18T10:42:31;28.38;;;13.55;;
57707;SDS011;43540;51.690;9.562;2023-11-18T10:45:00;26.55;;;13.45;;
57707;SDS011;43540;51.690;9.562;2023-11-18T10:47:33;28.50;;;13.18;;
57707;SDS011;43540;51.690;9.562;2023-11-18T10:50:05;26.70;;;12.27;;
57707;SDS011;43540;51.690;9.562;2023-11-18T10:52:36;27.35;;;12.75;;
57707;SDS011;43540;51.690;9.562;2023-11-18T10:55:03;26.90;;;12.85;;
57707;SDS011;43540;51.690;9.562;2023-11-18T10:57:39;25.45;;;12.13;;
57707;SDS011;43540;51.690;9.562;2023-11-18T11:00:08;28.20;;;13.52;;
57707;SDS011;43540;51.690;9.562;2023-11-18T11:02:45;26.33;;;12.48;;
57707;SDS011;43540;51.690;9.562;2023-11-18T11:05:27;28.70;;;13.30;;
57707;SDS011;43540;51.690;9.562;2023-11-18T11:07:59;27.58;;;12.77;;
57707;SDS011;43540;51.690;9.562;2023-11-18T11:10:30;24.80;;;12.98;;
57707;SDS011;43540;51.690;9.562;2023-11-18T11:12:58;24.83;;;12.82;;
57707;SDS011;43540;51.690;9.562;2023-11-18T11:15:29;25.40;;;12.32;;
57707;SDS011;43540;51.690;9.562;2023-11-18T11:18:13;26.58;;;12.63;;
57707;SDS011;43540;51.690;9.562;2023-11-18T11:20:55;25.33;;;11.77;;
57707;SDS011;43540;51.690;9.562;2023-11-18T11:23:31;26.63;;;12.13;;
57707;SDS011;43540;51.690;9.562;2023-11-18T11:32:00;22.95;;;10.85;;
57707;SDS011;43540;51.690;9.562;2023-11-18T11:34:40;21.52;;;9.77;;
57707;SDS011;43540;51.690;9.562;2023-11-18T11:37:12;21.57;;;10.50;;
57707;SDS011;43540;51.690;9.562;2023-11-18T11:39:41;22.38;;;10.23;;
57707;SDS011;43540;51.690;9.562;2023-11-18T11:42:13;19.42;;;9.98;;
57707;SDS011;43540;51.690;9.562;2023-11-18T11:44:44;20.80;;;9.75;;
57707;SDS011;43540;51.690;9.562;2023-11-18T11:47:11;16.98;;;8.38;;
57707;SDS011;43540;51.690;9.562;2023-11-18T11:49:47;19.95;;;9.88;;
57707;SDS011;43540;51.690;9.562;2023-11-18T11:52:27;16.75;;;8.90;;
57707;SDS011;43540;51.690;9.562;2023-11-18T11:55:12;19.90;;;9.23;;
57707;SDS011;43540;51.690;9.562;2023-11-18T11:57:52;18.50;;;9.00;;
57707;SDS011;43540;51.690;9.562;2023-11-18T12:00:25;19.98;;;9.65;;
57707;SDS011;43540;51.690;9.562;2023-11-18T12:03:01;16.48;;;8.88;;
57707;SDS011;43540;51.690;9.562;2023-11-18T12:05:31;18.52;;;9.40;;
57707;SDS011;43540;51.690;9.562;2023-11-18T12:08:00;18.25;;;9.48;;
57707;SDS011;43540;51.690;9.562;2023-11-18T12:10:27;18.38;;;8.90;;
57707;SDS011;43540;51.690;9.562;2023-11-18T12:13:07;18.40;;;9.18;;
57707;SDS011;43540;51.690;9.562;2023-11-18T12:15:48;20.00;;;9.90;;
57707;SDS011;43540;51.690;9.562;2023-11-18T12:18:21;19.33;;;9.57;;
57707;SDS011;43540;51.690;9.562;2023-11-18T12:20:48;20.23;;;9.00;;
57707;SDS011;43540;51.690;9.562;2023-11-18T12:23:20;21.70;;;11.27;;
57707;SDS011;43540;51.690;9.562;2023-11-18T12:25:52;18.67;;;8.38;;
57707;SDS011;43540;51.690;9.562;2023-11-18T12:28:25;19.02;;;9.85;;
57707;SDS011;43540;51.690;9.562;2023-11-18T12:31:02;17.45;;;8.57;;
57707;SDS011;43540;51.690;9.562;2023-11-18T12:37:05;18.02;;;8.23;;
57707;SDS011;43540;51.690;9.562;2023-11-18T12:39:53;18.52;;;9.00;;
57707;SDS011;43540;51.690;9.562;2023-11-18T12:43:00;16.75;;;8.13;;
57707;SDS011;43540;51.690;9.562;2023-11-18T12:48:21;20.30;;;9.60;;
57707;SDS011;43540;51.690;9.562;2023-11-18T12:50:54;21.02;;;9.88;;
57707;SDS011;43540;51.690;9.562;2023-11-18T12:53:25;17.67;;;8.98;;
57707;SDS011;43540;51.690;9.562;2023-11-18T12:55:52;17.92;;;8.90;;
57707;SDS011;43540;51.690;9.562;2023-11-18T12:58:20;19.65;;;9.23;;
57707;SDS011;43540;51.690;9.562;2023-11-18T13:00:49;19.42;;;9.18;;
57707;SDS011;43540;51.690;9.562;2023-11-18T13:03:16;20.60;;;9.73;;
57707;SDS011;43540;51.690;9.562;2023-11-18T13:05:44;20.95;;;9.25;;
57707;SDS011;43540;51.690;9.562;2023-11-18T13:08:11;18.02;;;8.93;;
57707;SDS011;43540;51.690;9.562;2023-11-18T13:10:42;20.13;;;8.85;;
57707;SDS011;43540;51.690;9.562;2023-11-18T13:13:11;25.35;;;11.48;;
57707;SDS011;43540;51.690;9.562;2023-11-18T13:15:59;19.48;;;8.68;;
57707;SDS011;43540;51.690;9.562;2023-11-18T13:18:27;19.40;;;9.52;;
57707;SDS011;43540;51.690;9.562;2023-11-18T13:21:07;19.23;;;9.20;;
57707;SDS011;43540;51.690;9.562;2023-11-18T13:23:37;21.00;;;9.77;;
57707;SDS011;43540;51.690;9.562;2023-11-18T13:26:03;18.88;;;8.93;;
57707;SDS011;43540;51.690;9.562;2023-11-18T13:28:32;19.17;;;9.70;;
57707;SDS011;43540;51.690;9.562;2023-11-18T13:30:58;22.05;;;9.65;;
57707;SDS011;43540;51.690;9.562;2023-11-18T13:33:25;17.77;;;8.38;;
57707;SDS011;43540;51.690;9.562;2023-11-18T13:35:52;22.10;;;10.73;;
57707;SDS011;43540;51.690;9.562;2023-11-18T13:38:19;23.48;;;11.20;;
57707;SDS011;43540;51.690;9.562;2023-11-18T13:40:46;21.20;;;10.02;;
57707;SDS011;43540;51.690;9.562;2023-11-18T13:43:14;19.30;;;9.30;;
57707;SDS011;43540;51.690;9.562;2023-11-18T13:45:41;25.33;;;11.32;;
57707;SDS011;43540;51.690;9.562;2023-11-18T13:48:12;27.00;;;12.90;;
57707;SDS011;43540;51.690;9.562;2023-11-18T13:50:40;20.58;;;9.73;;
57707;SDS011;43540;51.690;9.562;2023-11-18T13:53:09;26.85;;;12.70;;
57707;SDS011;43540;51.690;9.562;2023-11-18T13:55:37;29.90;;;14.23;;
57707;SDS011;43540;51.690;9.562;2023-11-18T13:58:05;24.85;;;12.15;;
57707;SDS011;43540;51.690;9.562;2023-11-18T14:00:33;26.45;;;10.15;;
57707;SDS011;43540;51.690;9.562;2023-11-18T14:03:00;19.00;;;9.70;;
57707;SDS011;43540;51.690;9.562;2023-11-18T14:05:27;19.65;;;10.35;;
57707;SDS011;43540;51.690;9.562;2023-11-18T14:07:54;18.85;;;9.70;;
57707;SDS011;43540;51.690;9.562;2023-11-18T14:10:35;19.40;;;9.18;;
57707;SDS011;43540;51.690;9.562;2023-11-18T14:13:04;18.13;;;9.15;;
57707;SDS011;43540;51.690;9.562;2023-11-18T14:15:32;19.35;;;8.75;;
57707;SDS011;43540;51.690;9.562;2023-11-18T14:18:02;18.10;;;8.40;;
57707;SDS011;43540;51.690;9.562;2023-11-18T14:20:30;20.17;;;9.23;;
57707;SDS011;43540;51.690;9.562;2023-11-18T14:22:57;20.13;;;9.90;;
57707;SDS011;43540;51.690;9.562;2023-11-18T14:25:25;19.55;;;9.40;;
57707;SDS011;43540;51.690;9.562;2023-11-18T14:27:56;18.02;;;8.82;;
57707;SDS011;43540;51.690;9.562;2023-11-18T14:30:26;18.65;;;8.70;;
57707;SDS011;43540;51.690;9.562;2023-11-18T14:32:53;17.23;;;8.55;;
57707;SDS011;43540;51.690;9.562;2023-11-18T14:35:20;18.83;;;8.98;;
57707;SDS011;43540;51.690;9.562;2023-11-18T14:37:51;17.38;;;8.98;;
57707;SDS011;43540;51.690;9.562;2023-11-18T14:40:17;18.13;;;9.55;;
57707;SDS011;43540;51.690;9.562;2023-11-18T14:42:46;18.33;;;9.23;;
57707;SDS011;43540;51.690;9.562;2023-11-18T14:45:16;19.52;;;9.13;;
57707;SDS011;43540;51.690;9.562;2023-11-18T14:47:43;16.55;;;8.57;;
57707;SDS011;43540;51.690;9.562;2023-11-18T14:50:20;18.93;;;9.23;;
57707;SDS011;43540;51.690;9.562;2023-11-18T14:52:48;20.20;;;10.18;;
57707;SDS011;43540;51.690;9.562;2023-11-18T14:55:18;28.05;;;12.80;;
57707;SDS011;43540;51.690;9.562;2023-11-18T14:57:45;40.13;;;18.38;;
57707;SDS011;43540;51.690;9.562;2023-11-18T15:00:12;24.50;;;12.02;;
57707;SDS011;43540;51.690;9.562;2023-11-18T15:02:48;25.90;;;12.90;;
57707;SDS011;43540;51.690;9.562;2023-11-18T15:07:53;22.73;;;11.15;;
57707;SDS011;43540;51.690;9.562;2023-11-18T15:10:22;21.80;;;10.90;;